Dilley, Texas
Current Conditions -  °F | °C
As of 11:53 PM on Sunday 19 Oct 2014 (Local Time) from KCOT Reporting Station
Clear Clear  
Wind Chill: 73°   Ceiling: Unl
Heat Index: 73°   Visibility: 10mi
Dew Point: 61°   Wind: 10mph
Humidity: 66%   Direction: 120°ESE
Pressure: 30.02"   Gusts: NA
Location:  28.67°N, 99.17°W
Report Text: KCOT 200453Z AUTO 12009KT 10SM CLR 23/16 A3002 RMK AO2 SLP157 T02280161
Loading
Personal Weather Stations






























Interactive Weather Map
Tropical Storm Tracking
New forecast layout! Learn more

10-Day Weather Forecast

Advertisements
Track Severe Weather on mobile